Terminal Aerodrome Forecast
Issued by NWS Boise, ID

Home | Current Version | Previous Version | Text Only | Print | Product List | Glossary On
Versions: 1 2 3 4 5 6 7 8 9 10 11 12 13 14 15 16 17
000
FTUS45 KBOI 240844 AAA
TAFBNO
TAF AMD
KBNO 240844Z 2409/2506 19005KT P6SM -SHRA OVC040
     FM241800 22015G25KT P6SM -SHRA VCTS SCT040CB BKN080
     FM250000 24015G25KT P6SM VCSH SCT050=

USA.gov is the U.S. government's official web portal to all federal, state and local government web resources and services.